Time;durP1;ratioP1;P1;durP2;ratioP2;P2;SDS_P1;SDS_P2;PMS_P1;PMS_P2;Temp;Humidity;BMP_temperature;BMP_pressure;BME280_temperature;BME280_humidity;BME280_pressure;Samples;Min_cycle;Max_cycle;Signal;HPM_P1;HPM_P2
2022/11/04 00:00:47;;;;;;;1.23;1.23;;;12.00;99.90;;;12.20;100.00;99577.25;5040209;28;20620;-64
2022/11/04 00:03:14;;;;;;;1.20;1.20;;;12.00;99.90;;;12.26;100.00;99571.41;5040890;28;20667;-64
2022/11/04 00:05:41;;;;;;;1.00;1.00;;;12.00;99.90;;;12.16;100.00;99571.47;5036654;28;20648;-64
2022/11/04 00:08:23;;;;;;;1.30;1.20;;;12.00;99.90;;;12.33;100.00;99572.47;5035454;28;20620;-64
2022/11/04 00:13:43;;;;;;;0.80;0.80;;;12.00;99.90;;;12.16;100.00;99560.19;5041956;28;20681;-66
2022/11/04 00:18:56;;;;;;;1.40;1.30;;;12.00;99.90;;;12.27;100.00;99563.41;5039605;28;20615;-64
2022/11/04 00:29:43;;;;;;;1.10;1.10;;;11.90;99.90;;;12.18;100.00;99559.06;5038753;28;20682;-66
2022/11/04 00:34:56;;;;;;;1.80;1.60;;;11.90;99.90;;;12.38;100.00;99565.84;5057313;28;20662;-65
2022/11/04 00:37:23;;;;;;;0.83;0.83;;;12.00;99.90;;;12.39;100.00;99569.28;5023655;28;20619;-66
2022/11/04 00:39:50;;;;;;;0.70;0.70;;;12.00;99.90;;;12.40;100.00;99573.53;5022141;28;21256;-64
2022/11/04 00:42:17;;;;;;;0.90;0.90;;;12.10;99.90;;;12.21;100.00;99576.25;5004201;28;21217;-64
2022/11/04 00:44:43;;;;;;;1.87;0.90;;;12.00;99.90;;;12.49;100.00;99577.88;5051582;28;20668;-64
2022/11/04 00:47:10;;;;;;;0.90;0.90;;;12.10;99.90;;;12.53;99.65;99591.47;5046171;28;20631;-64
2022/11/04 00:49:38;;;;;;;1.10;1.10;;;12.10;99.90;;;12.53;98.69;99587.06;5039825;28;20636;-64
2022/11/04 00:52:05;;;;;;;1.27;0.83;;;12.20;99.90;;;12.59;98.59;99585.66;5034699;28;20615;-65
2022/11/04 00:54:32;;;;;;;0.70;0.70;;;12.20;99.90;;;12.69;97.33;99584.63;5050656;28;20708;-64
2022/11/04 00:56:58;;;;;;;0.57;0.57;;;12.20;99.90;;;12.67;97.41;99588.38;5036921;28;20629;-65
2022/11/04 00:59:25;;;;;;;0.50;0.50;;;12.20;99.90;;;12.64;94.90;99594.72;5045503;28;20690;-66
2022/11/04 01:01:52;;;;;;;0.80;0.80;;;12.20;99.90;;;12.63;93.79;99608.75;5011887;28;20694;-65
2022/11/04 01:04:19;;;;;;;0.70;0.70;;;12.20;99.90;;;12.67;93.89;99612.72;5035544;28;21257;-65
2022/11/04 01:06:46;;;;;;;0.77;0.77;;;12.30;99.90;;;12.75;92.06;99617.25;5030978;28;21006;-64
2022/11/04 01:09:14;;;;;;;0.50;0.50;;;12.30;99.90;;;12.87;91.04;99609.00;5043809;28;20615;-64
2022/11/04 01:11:41;;;;;;;0.47;0.47;;;12.40;99.90;;;12.97;90.14;99615.00;5041721;28;20717;-65
2022/11/04 01:14:08;;;;;;;0.87;0.60;;;12.50;99.90;;;12.84;90.10;99621.59;5040344;28;20679;-66
2022/11/04 01:16:35;;;;;;;0.50;0.50;;;12.40;99.90;;;12.94;88.54;99609.25;5032661;28;20638;-65
2022/11/04 01:19:02;;;;;;;0.67;0.67;;;12.50;99.90;;;12.92;88.54;99612.03;5043288;28;20701;-64
2022/11/04 01:21:30;;;;;;;0.70;0.70;;;12.50;99.90;;;12.77;89.64;99608.28;5053681;28;20624;-64
2022/11/04 01:23:59;;;;;;;1.30;1.07;;;12.50;99.90;;;12.80;89.38;99615.00;5043958;28;20659;-65
2022/11/04 01:26:27;;;;;;;0.70;0.70;;;12.40;99.90;;;13.01;88.04;99620.78;5035874;28;21230;-64
2022/11/04 01:28:56;;;;;;;0.40;0.40;;;12.50;99.90;;;12.87;87.05;99632.56;5015832;28;20624;-64
2022/11/04 01:31:27;;;;;;;0.60;0.60;;;12.50;99.90;;;12.92;86.69;99616.44;5032419;28;20716;-65
2022/11/04 01:33:54;;;;;;;0.83;0.70;;;12.50;99.90;;;12.98;86.82;99623.69;5033715;28;21192;-64
2022/11/04 01:36:22;;;;;;;0.30;0.30;;;12.50;99.90;;;13.08;85.31;99621.81;5047116;28;20697;-64
2022/11/04 01:38:49;;;;;;;0.80;0.80;;;12.60;99.90;;;13.02;83.39;99619.78;5030863;28;20701;-65
2022/11/04 01:41:29;;;;;;;20.93;0.90;;;12.60;99.90;;;13.00;85.19;99627.78;5050113;28;20734;-63
2022/11/04 01:44:40;;;;;;;0.60;0.60;;;12.60;99.90;;;12.92;85.43;99621.66;5040557;28;20687;-65
2022/11/04 01:47:37;;;;;;;0.70;0.70;;;12.50;99.90;;;12.93;84.66;99620.66;5041162;28;20630;-65
2022/11/04 01:50:26;;;;;;;0.60;0.60;;;12.60;99.90;;;12.85;85.56;99620.59;5051441;28;20629;-65
2022/11/04 01:53:12;;;;;;;0.80;0.80;;;12.50;99.90;;;12.87;85.71;99610.81;5037695;28;20604;-67
2022/11/04 01:55:45;;;;;;;0.70;0.70;;;12.50;99.90;;;12.65;86.41;99613.88;5039966;28;21232;-67
2022/11/04 01:58:17;;;;;;;0.70;0.70;;;12.40;99.90;;;12.68;85.31;99627.47;5031392;28;20769;-65
2022/11/04 02:00:44;;;;;;;2.77;0.80;;;12.40;99.90;;;12.73;85.19;99621.78;5032827;28;20640;-65
2022/11/04 02:03:28;;;;;;;0.83;0.83;;;12.40;99.90;;;12.69;87.20;99625.69;5040284;28;21455;-65
2022/11/04 02:05:55;;;;;;;0.70;0.70;;;12.30;99.90;;;12.66;87.12;99626.78;5017860;28;20626;-64
2022/11/04 02:08:23;;;;;;;0.80;0.80;;;12.30;99.90;;;12.80;86.82;99623.66;5034962;28;20967;-65
2022/11/04 02:11:02;;;;;;;4.00;0.70;;;12.30;99.90;;;12.84;84.93;99627.63;5010497;28;20628;-65
2022/11/04 02:13:32;;;;;;;0.50;0.50;;;12.40;99.90;;;12.90;84.64;99631.47;5041136;28;20628;-65
2022/11/04 02:16:08;;;;;;;2.77;0.80;;;12.50;99.90;;;12.87;83.83;99640.44;5034444;28;20716;-65
2022/11/04 02:19:02;;;;;;;0.60;0.60;;;12.50;99.90;;;12.85;83.37;99644.16;5049378;28;20624;-65
2022/11/04 02:22:02;;;;;;;3.17;0.80;;;12.40;99.90;;;12.85;83.75;99649.41;5008961;28;21056;-65
2022/11/04 02:24:54;;;;;;;0.60;0.60;;;12.40;99.90;;;12.90;83.47;99655.03;5041537;28;20672;-68
2022/11/04 02:27:51;;;;;;;0.77;0.77;;;12.40;99.90;;;12.91;83.46;99673.19;5051675;28;20627;-65
2022/11/04 02:30:20;;;;;;;1.27;0.70;;;12.50;99.90;;;12.97;82.58;99677.00;5028973;28;20602;-66
2022/11/04 02:33:02;;;;;;;0.70;0.70;;;12.50;99.90;;;12.97;82.98;99666.53;5033722;28;20669;-65
2022/11/04 02:36:02;;;;;;;0.80;0.80;;;12.50;99.90;;;12.97;83.35;99658.66;5033698;28;20700;-65
2022/11/04 02:38:34;;;;;;;0.73;0.70;;;12.50;99.90;;;12.94;82.80;99659.81;5013946;28;20620;-65
2022/11/04 02:41:08;;;;;;;0.90;0.90;;;12.50;99.90;;;13.00;81.45;99666.25;5046313;28;20631;-65
2022/11/04 02:44:12;;;;;;;1.10;1.00;;;12.50;99.90;;;12.78;81.82;99664.03;5032407;28;20624;-65
2022/11/04 02:47:09;;;;;;;3.03;0.93;;;12.50;99.90;;;12.77;81.93;99652.78;5012370;28;20643;-65
2022/11/04 02:50:01;;;;;;;1.07;0.70;;;12.40;99.90;;;12.88;81.61;99647.31;5050032;28;20650;-65
2022/11/04 02:52:42;;;;;;;1.63;0.60;;;12.40;99.90;;;12.69;81.84;99659.72;5052291;28;20616;-65
2022/11/04 02:55:39;;;;;;;0.70;0.70;;;12.40;99.90;;;12.67;81.79;99665.06;5033469;28;21341;-64
2022/11/04 02:58:13;;;;;;;0.80;0.70;;;12.30;99.90;;;12.71;81.39;99661.22;5033399;28;21040;-67
2022/11/04 03:00:42;;;;;;;1.33;0.73;;;12.30;99.90;;;12.69;81.30;99654.47;5066018;28;21374;-68
2022/11/04 03:03:22;;;;;;;0.60;0.60;;;12.30;99.90;;;12.70;80.76;99658.72;5009912;28;20631;-65
2022/11/04 03:05:52;;;;;;;7.10;0.70;;;12.30;99.90;;;12.63;80.88;99676.00;5043192;28;20668;-64
2022/11/04 03:08:33;;;;;;;0.97;0.80;;;12.30;99.90;;;12.48;81.62;99671.22;5048947;28;20612;-65
2022/11/04 03:11:23;;;;;;;1.40;0.83;;;12.20;99.90;;;12.54;81.81;99669.84;5043772;28;20647;-65
2022/11/04 03:14:07;;;;;;;0.70;0.70;;;12.20;99.90;;;12.50;81.10;99689.41;5043520;28;20661;-66
2022/11/04 03:16:51;;;;;;;0.70;0.70;;;12.10;99.90;;;12.38;81.85;99683.53;5032674;28;20628;-65
2022/11/04 03:19:43;;;;;;;0.60;0.60;;;12.00;99.90;;;12.40;81.84;99680.78;5033229;28;20628;-65
2022/11/04 03:22:21;;;;;;;0.73;0.73;;;12.10;99.90;;;12.30;81.50;99698.31;5014835;28;20663;-67
2022/11/04 03:24:49;;;;;;;0.57;0.57;;;12.00;99.90;;;12.34;81.50;99700.50;5031142;28;20664;-65
2022/11/04 03:27:22;;;;;;;2.40;0.80;;;12.00;99.90;;;12.18;80.91;99710.72;5048270;28;20629;-65
2022/11/04 03:29:55;;;;;;;6.73;1.00;;;12.00;99.90;;;12.17;81.79;99703.88;5045256;28;21418;-66
2022/11/04 03:32:52;;;;;;;0.50;0.50;;;11.90;99.90;;;12.27;80.75;99706.44;5037918;28;20629;-66
2022/11/04 03:35:19;;;;;;;2.93;0.60;;;11.90;99.90;;;12.09;81.07;99695.91;5023585;28;20709;-67
2022/11/04 03:37:48;;;;;;;2.20;0.70;;;11.80;99.90;;;12.06;80.24;99703.19;5015185;28;20639;-66
2022/11/04 03:40:17;;;;;;;2.23;0.73;;;11.80;99.90;;;12.04;80.37;99698.13;5028182;28;20660;-66
2022/11/04 03:43:01;;;;;;;0.80;0.70;;;11.80;99.90;;;12.09;80.62;99713.38;5016902;28;20624;-65
2022/11/04 03:45:28;;;;;;;0.80;0.80;;;11.80;99.90;;;11.98;80.66;99703.09;5031218;28;20672;-65
2022/11/04 03:47:57;;;;;;;1.53;0.80;;;11.70;99.90;;;11.98;80.02;99703.09;5016021;28;20624;-66
2022/11/04 03:50:34;;;;;;;4.53;1.10;;;11.70;99.90;;;11.95;80.47;99709.41;5046439;28;20624;-65
2022/11/04 03:53:01;;;;;;;1.33;0.60;;;11.70;99.90;;;11.92;80.66;99707.09;5042763;28;20624;-65
2022/11/04 03:55:52;;;;;;;0.80;0.80;;;11.60;99.90;;;11.92;81.77;99699.25;5050665;28;20697;-65
2022/11/04 03:59:10;;;;;;;1.10;0.90;;;11.60;99.90;;;11.93;80.73;99695.66;5029941;28;21432;-65
2022/11/04 04:02:01;;;;;;;0.60;0.60;;;11.60;99.90;;;11.98;80.63;99683.00;5012971;28;20609;-65
2022/11/04 04:05:02;;;;;;;2.93;0.50;;;11.60;99.90;;;12.16;79.44;99690.94;5017740;28;20695;-65
2022/11/04 04:07:42;;;;;;;0.40;0.40;;;11.70;99.90;;;11.91;80.65;99696.75;5033268;28;20646;-65
2022/11/04 04:13:21;;;;;;;0.40;0.40;;;11.50;99.90;;;11.68;81.65;99683.22;5049320;28;20631;-65
2022/11/04 04:15:56;;;;;;;1.73;0.80;;;11.40;99.90;;;11.49;83.02;99693.66;5049513;28;20647;-65
2022/11/04 04:18:47;;;;;;;2.83;0.60;;;11.40;99.90;;;11.36;83.76;99693.94;5050329;28;20657;-64
2022/11/04 04:21:28;;;;;;;0.50;0.50;;;11.20;99.90;;;11.38;84.15;99701.63;5032616;28;20630;-66
2022/11/04 04:29:31;;;;;;;0.60;0.60;;;11.20;99.90;;;11.50;83.73;99697.88;5018104;28;20751;-64
2022/11/04 04:32:00;;;;;;;0.70;0.63;;;11.20;99.90;;;11.50;84.07;99682.22;5031997;28;20626;-67
2022/11/04 04:34:30;;;;;;;1.00;0.80;;;11.20;99.90;;;11.42;84.07;99687.31;5002158;28;20661;-66
2022/11/04 04:37:21;;;;;;;0.40;0.40;;;11.20;99.90;;;11.39;84.09;99685.00;5015696;28;21000;-66
2022/11/04 04:45:41;;;;;;;0.53;0.53;;;11.00;99.90;;;11.22;84.42;99677.84;5050592;28;20707;-64
2022/11/04 04:48:12;;;;;;;1.17;0.50;;;11.00;99.90;;;11.26;86.19;99674.00;5052489;28;20632;-64
2022/11/04 04:50:47;;;;;;;0.80;0.80;;;11.00;99.90;;;11.26;86.16;99663.56;5052440;28;20628;-65
2022/11/04 04:53:14;;;;;;;1.37;0.70;;;11.00;99.90;;;11.18;86.97;99674.66;4999519;28;20624;-66
2022/11/04 04:55:41;;;;;;;1.63;0.70;;;10.90;99.90;;;11.08;86.97;99680.84;5031155;28;20659;-65
2022/11/04 04:58:08;;;;;;;0.63;0.63;;;10.90;99.90;;;11.21;86.09;99676.19;5065617;28;20640;-65
2022/11/04 05:00:35;;;;;;;1.63;0.90;;;10.90;99.90;;;11.27;86.02;99673.03;5019298;28;20626;-65
2022/11/04 05:03:02;;;;;;;0.67;0.67;;;10.90;99.90;;;11.31;85.79;99682.22;5054866;28;21237;-65
2022/11/04 05:05:29;;;;;;;0.50;0.50;;;10.90;99.90;;;11.23;85.66;99684.72;5056099;28;20675;-65
2022/11/04 05:08:06;;;;;;;0.77;0.60;;;10.90;99.90;;;11.18;87.23;99679.88;5034947;28;20635;-64
2022/11/04 05:10:34;;;;;;;0.70;0.67;;;10.90;99.90;;;11.11;87.55;99686.63;5034414;28;20635;-65
2022/11/04 05:15:47;;;;;;;1.37;0.90;;;10.80;99.90;;;11.03;87.82;99683.06;5027485;28;20739;-64
2022/11/04 05:18:14;;;;;;;1.10;0.97;;;10.80;99.90;;;11.11;87.52;99675.38;5051779;28;21040;-67
2022/11/04 05:20:41;;;;;;;2.00;1.10;;;10.80;99.90;;;11.30;87.09;99670.16;5051903;28;21268;-66
2022/11/04 05:23:10;;;;;;;0.83;0.83;;;10.90;99.90;;;11.30;87.09;99654.47;5054003;28;21181;-66
2022/11/04 05:25:39;;;;;;;0.50;0.50;;;10.90;99.90;;;11.13;88.42;99656.00;5052218;28;20668;-66
2022/11/04 05:28:07;;;;;;;0.63;0.63;;;10.90;99.90;;;11.07;88.02;99647.88;5030234;28;20642;-66
2022/11/04 05:30:34;;;;;;;0.90;0.67;;;10.90;99.90;;;11.04;89.22;99642.94;5056007;28;20701;-65
2022/11/04 05:33:02;;;;;;;3.63;1.00;;;10.80;99.90;;;10.97;90.91;99647.06;5035647;28;20631;-64
2022/11/04 05:35:32;;;;;;;1.10;0.60;;;10.80;99.90;;;11.01;89.85;99643.22;5053326;28;20685;-65
2022/11/04 05:37:59;;;;;;;3.03;0.73;;;10.80;99.90;;;10.91;90.89;99644.03;5036840;28;20624;-64
2022/11/04 05:40:26;;;;;;;2.00;0.83;;;10.70;99.90;;;10.97;90.75;99647.06;5035691;28;20635;-66
2022/11/04 05:42:52;;;;;;;1.57;0.80;;;10.70;99.90;;;11.03;91.10;99636.06;5053069;28;20636;-66
2022/11/04 05:45:19;;;;;;;1.20;1.00;;;10.70;99.90;;;11.12;90.79;99643.06;5052849;28;20679;-66
2022/11/04 05:47:46;;;;;;;0.80;0.80;;;10.80;99.90;;;11.09;90.72;99630.31;5035815;28;20697;-66
2022/11/04 05:50:13;;;;;;;0.70;0.70;;;10.80;99.90;;;11.08;90.25;99633.84;5028724;28;20613;-65
2022/11/04 05:52:40;;;;;;;2.50;1.00;;;10.80;99.90;;;10.87;91.10;99636.59;5045444;28;20620;-66
2022/11/04 05:55:07;;;;;;;0.80;0.80;;;10.70;99.90;;;11.01;90.97;99630.97;5002822;28;20650;-66
2022/11/04 05:57:37;;;;;;;1.00;1.00;;;10.70;99.90;;;10.83;92.27;99630.84;5035015;28;20620;-65
2022/11/04 06:00:05;;;;;;;6.13;1.10;;;10.70;99.90;;;10.86;91.92;99629.75;5042052;28;20643;-65
2022/11/04 06:02:32;;;;;;;1.90;0.80;;;10.70;99.90;;;10.88;92.12;99627.84;5019113;28;20689;-65
2022/11/04 06:04:59;;;;;;;0.97;0.70;;;10.70;99.90;;;10.91;91.34;99645.81;5052456;28;20674;-65
2022/11/04 06:07:26;;;;;;;0.63;0.60;;;10.70;99.90;;;10.84;91.45;99644.69;5052977;28;20650;-67
2022/11/04 06:09:53;;;;;;;0.90;0.90;;;10.70;99.90;;;11.07;90.38;99661.78;5034772;28;20617;-66
2022/11/04 06:12:20;;;;;;;1.73;1.00;;;10.70;99.90;;;10.92;91.06;99656.09;5052559;28;20632;-65
2022/11/04 06:14:46;;;;;;;1.00;0.90;;;10.70;99.90;;;10.93;90.82;99662.16;5052620;28;20702;-66
2022/11/04 06:17:16;;;;;;;1.70;0.90;;;10.70;99.90;;;10.90;91.14;99663.25;5051735;28;21253;-65
2022/11/04 06:19:43;;;;;;;0.97;0.60;;;10.60;99.90;;;10.80;91.97;99659.81;5052292;28;21213;-65
2022/11/04 06:22:13;;;;;;;1.57;0.93;;;10.60;99.90;;;10.82;91.85;99668.31;5002644;28;20654;-65
2022/11/04 06:24:40;;;;;;;1.27;0.90;;;10.60;99.90;;;10.77;92.79;99678.34;5034802;28;20652;-65
2022/11/04 06:27:09;;;;;;;2.07;0.90;;;10.60;99.90;;;10.75;92.24;99680.25;5052421;28;21007;-66
2022/11/04 06:29:40;;;;;;;0.67;0.67;;;10.60;99.90;;;10.62;93.24;99673.66;5051834;28;20628;-65
2022/11/04 06:32:10;;;;;;;0.70;0.70;;;10.50;99.90;;;10.67;93.28;99682.72;5052557;28;20639;-66
2022/11/04 06:34:37;;;;;;;0.80;0.80;;;10.50;99.90;;;10.51;94.14;99686.78;5049648;28;20658;-68
2022/11/04 06:37:04;;;;;;;1.40;0.70;;;10.50;99.90;;;10.62;92.75;99697.94;5061280;28;20978;-65
2022/11/04 06:39:31;;;;;;;2.97;1.00;;;10.40;99.90;;;10.71;93.06;99699.75;5061346;28;20624;-68
2022/11/04 06:41:58;;;;;;;0.67;0.67;;;10.40;99.90;;;10.75;92.35;99695.91;5033633;28;20725;-65
2022/11/04 06:44:27;;;;;;;0.80;0.80;;;10.50;99.90;;;10.74;93.20;99702.09;5057716;28;20652;-65
2022/11/04 06:46:54;;;;;;;0.67;0.67;;;10.50;99.90;;;10.73;93.68;99691.81;4998331;28;20620;-67
2022/11/04 06:49:22;;;;;;;0.60;0.60;;;10.50;99.90;;;10.71;93.63;99691.91;5029416;28;20647;-65
2022/11/04 06:51:49;;;;;;;0.57;0.57;;;10.50;99.90;;;10.81;93.00;99694.56;5056153;28;20636;-66
2022/11/04 06:54:16;;;;;;;1.03;0.67;;;10.50;99.90;;;10.88;91.69;99693.88;5032990;28;20993;-66
2022/11/04 06:56:44;;;;;;;2.60;0.93;;;10.60;99.90;;;11.06;91.84;99699.25;5016981;28;21192;-67
2022/11/04 06:59:17;;;;;;;2.03;0.90;;;10.70;99.90;;;11.13;91.13;99705.59;5014556;28;20627;-64
2022/11/04 07:01:45;;;;;;;2.47;0.90;;;10.80;99.90;;;11.28;90.55;99703.41;5033489;28;20632;-65
2022/11/04 07:04:12;;;;;;;0.90;0.90;;;10.90;99.90;;;11.30;90.58;99706.72;5050673;28;20624;-66
2022/11/04 07:06:42;;;;;;;0.90;0.90;;;10.90;99.90;;;11.21;91.20;99699.69;5050112;28;21053;-65
2022/11/04 07:09:13;;;;;;;0.60;0.57;;;10.90;99.90;;;11.18;91.68;99695.56;5049026;28;20660;-65
2022/11/04 07:11:42;;;;;;;0.70;0.70;;;10.90;99.90;;;11.19;91.32;99696.38;5030152;28;20632;-66
2022/11/04 07:14:10;;;;;;;0.60;0.60;;;10.90;99.90;;;11.21;90.98;99702.28;5050148;28;20690;-65
2022/11/04 07:16:37;;;;;;;1.53;0.80;;;10.90;99.90;;;11.19;91.76;99701.59;5032988;28;20628;-67
2022/11/04 07:19:04;;;;;;;0.70;0.70;;;10.90;99.90;;;11.11;91.15;99704.09;5051008;28;21234;-65
2022/11/04 07:21:31;;;;;;;1.10;0.90;;;10.90;99.90;;;11.22;91.64;99714.41;5050902;28;20644;-65
2022/11/04 07:24:00;;;;;;;0.60;0.60;;;10.90;99.90;;;11.36;90.90;99716.59;5032052;28;20625;-65
2022/11/04 07:26:27;;;;;;;0.60;0.60;;;11.00;99.90;;;11.32;91.07;99729.13;5046574;28;21248;-65
2022/11/04 07:28:54;;;;;;;2.50;1.10;;;11.00;99.90;;;11.26;90.73;99721.00;5050313;28;20727;-69
2022/11/04 07:31:21;;;;;;;1.00;1.00;;;11.00;99.90;;;11.42;89.51;99722.09;5047178;28;20694;-65
2022/11/04 07:33:51;;;;;;;7.50;0.90;;;11.00;99.90;;;11.42;89.15;99724.72;5049492;28;20639;-65
2022/11/04 07:36:18;;;;;;;0.67;0.67;;;11.10;99.90;;;11.40;90.42;99721.41;5030886;28;20854;-65
2022/11/04 07:38:46;;;;;;;0.70;0.70;;;11.10;99.90;;;11.35;89.96;99720.19;5048975;28;20640;-66
2022/11/04 07:41:14;;;;;;;1.17;0.40;;;11.10;99.90;;;11.33;89.11;99722.91;5050634;28;20667;-66
2022/11/04 07:43:41;;;;;;;1.63;1.27;;;11.10;99.90;;;11.51;88.85;99717.84;5031781;28;20644;-65
2022/11/04 07:46:11;;;;;;;4.30;0.67;;;11.20;99.90;;;11.41;89.56;99724.84;5049007;28;20686;-65
2022/11/04 07:48:38;;;;;;;1.33;0.87;;;11.20;99.90;;;11.29;90.50;99723.31;5049769;28;20635;-66
2022/11/04 07:51:09;;;;;;;3.37;1.00;;;11.10;99.90;;;11.42;89.78;99721.25;5048638;28;20624;-66
2022/11/04 07:53:36;;;;;;;0.70;0.70;;;11.10;99.90;;;11.51;88.40;99720.44;5030850;28;20624;-66
2022/11/04 07:56:12;;;;;;;1.67;0.70;;;11.20;99.90;;;11.62;88.20;99720.31;5050086;28;20726;-66
2022/11/04 07:58:40;;;;;;;1.03;0.80;;;11.20;99.90;;;11.44;89.75;99714.13;5038356;28;20677;-65
2022/11/04 08:01:15;;;;;;;0.67;0.50;;;11.20;99.90;;;11.61;88.04;99716.03;5050497;28;20640;-67
2022/11/04 08:03:42;;;;;;;0.60;0.60;;;11.30;99.90;;;11.85;87.20;99708.63;5048035;28;20746;-67
2022/11/04 08:06:12;;;;;;;1.10;0.70;;;11.40;99.90;;;11.93;87.08;99713.13;5047668;28;20671;-67
2022/11/04 08:08:39;;;;;;;3.70;0.60;;;11.50;99.90;;;12.03;86.42;99716.56;5030916;28;20651;-65
2022/11/04 08:11:13;;;;;;;0.97;0.97;;;11.60;99.90;;;11.97;87.17;99717.94;5050063;28;20638;-65
2022/11/04 08:13:45;;;;;;;0.80;0.57;;;11.60;99.90;;;11.91;86.91;99712.44;5048918;28;20639;-64
2022/11/04 08:16:18;;;;;;;0.90;0.60;;;11.60;99.90;;;11.87;87.30;99711.09;5048962;28;20667;-65
2022/11/04 08:18:47;;;;;;;0.73;0.53;;;11.60;99.90;;;11.93;87.17;99711.34;5049758;28;20658;-65
2022/11/04 08:21:15;;;;;;;0.53;0.53;;;11.60;99.90;;;12.12;85.90;99705.25;5052309;28;20682;-65
2022/11/04 08:23:42;;;;;;;6.90;0.77;;;11.60;99.90;;;12.08;86.07;99699.47;5053203;28;20642;-64
2022/11/04 08:26:12;;;;;;;1.10;0.80;;;11.70;99.90;;;11.91;87.52;99687.13;5037009;28;20663;-65
2022/11/04 08:28:39;;;;;;;0.77;0.70;;;11.70;99.90;;;12.14;86.15;99691.06;5052464;28;20643;-65
2022/11/04 08:31:13;;;;;;;2.70;0.70;;;11.70;99.90;;;12.35;84.51;99696.09;5051276;28;20862;-64
2022/11/04 08:33:41;;;;;;;1.50;0.70;;;11.80;99.90;;;12.38;84.13;99690.56;5033938;28;20701;-66
2022/11/04 08:36:32;;;;;;;1.53;0.90;;;12.00;99.90;;;12.92;82.10;99697.59;5040729;28;20644;-65
2022/11/04 08:38:59;;;;;;;0.80;0.70;;;12.20;99.90;;;13.34;80.77;99697.84;5045250;28;21228;-65
2022/11/04 08:41:37;;;;;;;1.33;0.80;;;12.40;99.90;;;13.33;80.62;99694.41;5037095;28;20659;-64
2022/11/04 08:44:04;;;;;;;0.80;0.80;;;12.60;99.90;;;13.67;78.86;99695.34;5054340;28;20993;-64
2022/11/04 08:46:37;;;;;;;0.63;0.63;;;12.80;99.90;;;13.73;77.93;99696.56;5051858;28;21282;-65
2022/11/04 08:49:04;;;;;;;0.90;0.90;;;13.00;99.90;;;14.14;76.59;99701.06;5034864;28;20624;-67
2022/11/04 08:51:43;;;;;;;0.80;0.80;;;13.10;99.90;;;14.46;75.86;99695.22;5052525;28;20624;-66
2022/11/04 08:54:10;;;;;;;0.90;0.90;;;13.40;99.90;;;14.65;74.23;99694.97;5052446;28;20638;-65
2022/11/04 08:56:38;;;;;;;0.80;0.80;;;13.70;99.90;;;14.99;73.02;99705.41;5053621;28;20627;-64
2022/11/04 08:59:06;;;;;;;0.80;0.80;;;13.90;99.90;;;15.14;71.72;99699.34;5040809;28;20640;-64
2022/11/04 09:01:36;;;;;;;0.90;0.90;;;14.10;99.90;;;15.20;71.81;99698.72;5035130;28;21223;-64
2022/11/04 09:04:04;;;;;;;1.20;1.10;;;14.30;99.90;;;15.60;70.40;99697.13;5053197;28;21247;-65
2022/11/04 09:06:38;;;;;;;1.03;0.77;;;14.50;99.90;;;15.72;68.83;99699.25;5052265;28;21268;-66
2022/11/04 09:09:08;;;;;;;1.47;1.40;;;14.60;99.90;;;15.55;69.66;99700.25;5053053;28;21203;-64
2022/11/04 09:11:41;;;;;;;3.00;1.10;;;14.60;99.90;;;15.99;67.74;99708.63;5053303;28;20628;-65
2022/11/04 09:14:08;;;;;;;1.80;1.10;;;14.80;99.90;;;16.70;66.28;99716.47;5035436;28;20612;-64
2022/11/04 09:16:37;;;;;;;0.90;0.90;;;15.10;99.90;;;17.63;62.73;99715.47;5003376;28;21262;-66
2022/11/04 09:19:04;;;;;;;1.33;1.17;;;15.70;99.90;;;18.69;59.66;99710.75;5048338;28;20658;-65
2022/11/04 09:21:31;;;;;;;1.33;0.77;;;16.40;99.90;;;19.02;57.85;99718.06;5052164;28;20986;-66
2022/11/04 09:23:58;;;;;;;1.23;1.13;;;17.00;99.90;;;19.28;57.15;99721.00;5053168;28;20715;-65
2022/11/04 09:26:25;;;;;;;5.60;0.93;;;17.40;99.90;;;18.76;57.41;99722.25;5052831;28;20675;-65
2022/11/04 09:28:57;;;;;;;1.03;1.03;;;17.40;99.90;;;17.30;61.80;99721.94;5053952;28;20620;-65
2022/11/04 09:31:27;;;;;;;1.30;1.20;;;16.80;99.90;;;16.49;65.04;99722.31;5030576;28;20631;-66
2022/11/04 09:33:55;;;;;;;0.93;0.80;;;16.20;99.90;;;15.89;67.08;99718.47;5052587;28;20631;-65
2022/11/04 09:36:22;;;;;;;3.20;0.93;;;15.70;99.90;;;15.87;67.23;99720.44;5045787;28;21018;-65
2022/11/04 09:38:49;;;;;;;3.07;0.83;;;15.40;99.90;;;15.46;69.31;99720.44;5070403;28;20676;-66
2022/11/04 09:41:46;;;;;;;1.73;0.97;;;15.00;99.90;;;15.40;69.31;99722.88;5044171;28;20623;-65
2022/11/04 09:44:24;;;;;;;0.97;0.97;;;15.00;99.90;;;15.61;69.05;99722.44;5053514;28;20608;-67
2022/11/04 09:46:57;;;;;;;0.83;0.80;;;14.80;99.90;;;15.88;68.19;99722.94;5050327;28;20710;-67
2022/11/04 09:49:29;;;;;;;1.30;1.03;;;14.90;99.90;;;16.03;67.51;99728.34;5018663;28;20624;-64
2022/11/04 09:51:58;;;;;;;3.63;1.00;;;15.00;99.90;;;15.73;67.76;99736.91;5035095;28;20639;-65
2022/11/04 09:55:13;;;;;;;2.87;0.73;;;15.00;99.90;;;15.45;69.52;99741.66;5034553;28;21382;-65
2022/11/04 09:57:40;;;;;;;2.10;0.73;;;14.90;99.90;;;15.16;70.67;99746.50;5053057;28;21211;-65
2022/11/04 10:00:15;;;;;;;0.60;0.60;;;14.70;99.90;;;15.02;71.82;99755.81;5028101;28;20995;-65
2022/11/04 10:02:48;;;;;;;1.03;0.90;;;14.50;99.90;;;14.20;75.28;99762.59;5056888;28;20614;-65
2022/11/04 10:05:36;;;;;;;1.00;0.87;;;14.30;99.90;;;14.24;75.19;99753.44;5057601;28;20663;-67
2022/11/04 10:08:29;;;;;;;0.60;0.60;;;14.00;99.90;;;14.28;75.52;99765.28;5051360;28;20609;-65
2022/11/04 10:11:27;;;;;;;0.80;0.80;;;13.80;99.90;;;14.23;75.95;99768.34;5048638;28;21176;-66
2022/11/04 10:14:07;;;;;;;8.43;4.70;;;13.80;99.90;;;14.03;76.90;99764.31;5032838;28;20979;-64
2022/11/04 10:16:50;;;;;;;8.83;5.50;;;13.70;99.90;;;14.24;75.65;99759.53;5044255;28;20636;-68
2022/11/04 10:19:59;;;;;;;0.80;0.80;;;13.70;99.90;;;14.31;75.92;99757.94;5031693;28;20633;-65
2022/11/04 10:22:50;;;;;;;0.60;0.60;;;13.80;99.90;;;14.49;75.12;99752.63;5030964;28;20617;-69
2022/11/04 10:25:24;;;;;;;1.93;0.83;;;13.80;99.90;;;14.85;73.31;99746.22;5022324;28;21259;-65
2022/11/04 10:27:51;;;;;;;0.93;0.90;;;14.00;99.90;;;15.22;71.71;99745.84;5033931;28;20730;-65
2022/11/04 10:30:21;;;;;;;0.90;0.70;;;14.30;99.90;;;15.28;71.64;99746.03;5050265;28;20978;-66
2022/11/04 10:33:18;;;;;;;0.90;0.80;;;14.40;99.90;;;15.40;71.26;99742.09;5054764;28;21080;-68
2022/11/04 10:35:56;;;;;;;0.73;0.73;;;14.50;99.90;;;15.18;71.67;99745.34;5061018;28;20708;-65
2022/11/04 10:38:45;;;;;;;1.10;1.00;;;14.50;99.90;;;15.04;72.27;99735.47;5037692;28;20653;-66
2022/11/04 10:41:36;;;;;;;1.63;0.83;;;14.40;99.90;;;15.09;72.17;99730.56;5050172;28;20693;-66
2022/11/04 10:44:12;;;;;;;2.60;0.87;;;14.50;99.90;;;15.39;71.10;99727.34;5043655;28;20628;-63
2022/11/04 10:47:09;;;;;;;0.87;0.80;;;14.60;99.90;;;15.30;71.07;99720.41;5029722;28;20667;-66
2022/11/04 10:50:12;;;;;;;0.50;0.43;;;14.60;99.90;;;14.77;73.18;99722.56;5040482;28;20624;-67
2022/11/04 10:53:14;;;;;;;0.80;0.80;;;14.60;99.90;;;14.99;72.32;99727.22;5033485;28;21116;-65
2022/11/04 10:55:44;;;;;;;0.90;0.90;;;14.40;99.90;;;15.14;71.40;99709.06;5024247;28;21289;-66
2022/11/04 10:58:21;;;;;;;3.30;0.70;;;14.50;99.90;;;15.10;71.89;99718.25;5039943;28;20645;-66
2022/11/04 11:00:50;;;;;;;0.80;0.80;;;14.50;99.90;;;14.94;72.61;99708.53;5033295;28;21076;-67
2022/11/04 11:03:33;;;;;;;0.70;0.70;;;14.40;99.90;;;15.01;72.95;99714.78;5050797;28;20624;-65
2022/11/04 11:06:10;;;;;;;0.90;0.70;;;14.40;99.90;;;15.46;70.79;99712.56;5048934;28;21164;-64
2022/11/04 11:08:38;;;;;;;3.90;0.70;;;14.60;99.90;;;15.37;70.57;99715.34;5050899;28;21167;-64
2022/11/04 11:11:08;;;;;;;0.80;0.80;;;14.60;99.90;;;15.24;70.62;99714.97;5038519;28;20648;-67
2022/11/04 11:13:45;;;;;;;1.73;0.60;;;14.60;99.90;;;15.35;70.55;99709.41;5055062;28;20705;-65
2022/11/04 11:16:25;;;;;;;0.70;0.70;;;14.70;99.90;;;15.37;70.33;99710.06;5053569;28;20659;-65
2022/11/04 11:19:10;;;;;;;1.00;0.90;;;14.60;99.90;;;15.15;70.98;99713.31;5029457;28;20624;-65